createdAt,value
2023-03-29T00:01:40.053Z,99770.25
2023-03-29T00:04:06.961Z,99780.53
2023-03-29T00:06:34.241Z,99770.00
2023-03-29T00:09:01.342Z,99774.69
2023-03-29T00:11:28.533Z,99771.44
2023-03-29T00:13:55.543Z,99765.63
2023-03-29T00:16:24.115Z,99760.81
2023-03-29T00:18:51.515Z,99764.25
2023-03-29T00:21:18.422Z,99774.63
2023-03-29T00:23:45.224Z,99770.03
2023-03-29T00:26:12.315Z,99768.59
2023-03-29T00:28:39.150Z,99768.38
2023-03-29T00:31:08.567Z,99763.41
2023-03-29T00:33:37.084Z,99765.56
2023-03-29T00:36:04.923Z,99766.59
2023-03-29T00:38:32.267Z,99762.63
2023-03-29T00:40:59.723Z,99758.44
2023-03-29T00:43:27.424Z,99753.41
2023-03-29T00:45:54.374Z,99754.00
2023-03-29T00:48:25.109Z,99756.66
2023-03-29T00:50:57.624Z,99743.34
2023-03-29T00:53:28.242Z,99760.09
2023-03-29T00:56:01.376Z,99761.38
2023-03-29T00:58:33.904Z,99766.03
2023-03-29T01:01:05.156Z,99758.25
2023-03-29T01:03:36.901Z,99767.09
2023-03-29T01:06:08.301Z,99771.50
2023-03-29T01:08:40.407Z,99759.75
2023-03-29T01:11:12.488Z,99752.09
2023-03-29T01:13:44.175Z,99760.50
2023-03-29T01:16:13.938Z,99764.78
2023-03-29T01:18:40.920Z,99768.16
2023-03-29T01:21:20.928Z,99756.84
2023-03-29T01:24:03.845Z,99760.94
2023-03-29T01:26:40.510Z,99753.19
2023-03-29T01:29:14.162Z,99757.44
2023-03-29T01:31:45.818Z,99753.56
2023-03-29T01:34:19.858Z,99750.53
2023-03-29T01:36:52.154Z,99748.25
2023-03-29T01:39:19.016Z,99742.91
2023-03-29T01:41:52.598Z,99738.75
2023-03-29T01:44:29.648Z,99739.81
2023-03-29T01:47:06.509Z,99733.16
2023-03-29T01:49:38.446Z,99723.97
2023-03-29T01:52:13.708Z,99721.47
2023-03-29T01:54:43.996Z,99719.63
2023-03-29T01:57:12.180Z,99716.91
2023-03-29T01:59:44.272Z,99719.69
2023-03-29T02:02:15.993Z,99712.56
2023-03-29T02:04:47.660Z,99711.53
2023-03-29T02:07:17.507Z,99708.31
2023-03-29T02:09:46.976Z,99706.88
2023-03-29T02:12:16.982Z,99699.97
2023-03-29T02:14:45.851Z,99704.78
2023-03-29T02:17:16.578Z,99699.09
2023-03-29T02:19:44.648Z,99700.50
2023-03-29T02:22:13.485Z,99700.59
2023-03-29T02:24:42.205Z,99699.97
2023-03-29T02:27:09.310Z,99697.94
2023-03-29T02:29:36.482Z,99698.09
2023-03-29T02:32:13.033Z,99692.16
2023-03-29T02:34:46.701Z,99690.41
2023-03-29T02:37:18.014Z,99687.44
2023-03-29T02:39:48.314Z,99689.66
2023-03-29T02:42:16.890Z,99690.06
2023-03-29T02:44:46.687Z,99685.03
2023-03-29T02:47:19.780Z,99679.53
2023-03-29T02:49:47.009Z,99686.78
2023-03-29T02:52:17.576Z,99698.44
2023-03-29T02:54:48.717Z,99684.72
2023-03-29T02:57:15.665Z,99695.22
2023-03-29T02:59:42.755Z,99694.94
2023-03-29T03:02:10.109Z,99681.09
2023-03-29T03:04:38.489Z,99676.97
2023-03-29T03:07:05.342Z,99670.25
2023-03-29T03:09:32.703Z,99665.63
2023-03-29T03:11:59.572Z,99667.91
2023-03-29T03:14:26.249Z,99666.41
2023-03-29T03:16:53.076Z,99664.34
2023-03-29T03:19:19.967Z,99663.34
2023-03-29T03:21:48.091Z,99662.41
2023-03-29T03:24:14.953Z,99654.38
2023-03-29T03:26:41.984Z,99663.03
2023-03-29T03:29:09.085Z,99661.91
2023-03-29T03:31:35.827Z,99656.44
2023-03-29T03:34:03.072Z,99649.38
2023-03-29T03:36:30.242Z,99637.97
2023-03-29T03:38:58.604Z,99630.00
2023-03-29T03:41:25.743Z,99636.09
2023-03-29T03:43:52.774Z,99629.19
2023-03-29T03:46:19.967Z,99633.75
2023-03-29T03:48:47.329Z,99637.84
2023-03-29T03:51:14.315Z,99628.41
2023-03-29T03:53:41.439Z,99622.94
2023-03-29T03:56:10.524Z,99623.09
2023-03-29T03:58:37.899Z,99617.19
2023-03-29T04:01:06.083Z,99610.78
2023-03-29T04:03:33.000Z,99603.56
2023-03-29T04:06:01.482Z,99598.31
2023-03-29T04:08:28.328Z,99596.19
2023-03-29T04:10:56.972Z,99597.72
2023-03-29T04:13:26.046Z,99598.31
2023-03-29T04:15:53.237Z,99592.94
2023-03-29T04:18:20.974Z,99579.63
2023-03-29T04:20:48.393Z,99582.97
2023-03-29T04:23:15.844Z,99575.75
2023-03-29T04:25:42.669Z,99572.66
2023-03-29T04:28:10.022Z,99582.28
2023-03-29T04:30:38.781Z,99584.19
2023-03-29T04:33:05.597Z,99587.47
2023-03-29T04:35:32.532Z,99583.59
2023-03-29T04:37:59.452Z,99583.69
2023-03-29T04:40:26.403Z,99595.97
2023-03-29T04:42:53.308Z,99595.97
2023-03-29T04:45:20.037Z,99602.50
2023-03-29T04:47:48.207Z,99598.31
2023-03-29T04:50:15.090Z,99612.09
2023-03-29T04:52:42.139Z,99624.06
2023-03-29T04:55:09.660Z,99624.41
2023-03-29T04:57:36.799Z,99631.00
2023-03-29T05:00:04.425Z,99635.41
2023-03-29T05:02:31.546Z,99641.97
2023-03-29T05:04:59.879Z,99629.53
2023-03-29T05:07:26.923Z,99617.34
2023-03-29T05:09:54.007Z,99616.19
2023-03-29T05:12:21.027Z,99622.75
2023-03-29T05:14:48.107Z,99602.53
2023-03-29T05:17:14.902Z,99590.44
2023-03-29T05:19:41.701Z,99585.59
2023-03-29T05:22:10.309Z,99584.63
2023-03-29T05:24:37.110Z,99571.06
2023-03-29T05:27:04.363Z,99576.84
2023-03-29T05:29:31.478Z,99569.81
2023-03-29T05:31:58.474Z,99565.47
2023-03-29T05:34:25.424Z,99573.63
2023-03-29T05:36:52.294Z,99580.22
2023-03-29T05:39:20.724Z,99577.06
2023-03-29T05:41:47.513Z,99572.19
2023-03-29T05:44:17.680Z,99567.50
2023-03-29T05:46:44.792Z,99569.34
2023-03-29T05:49:11.948Z,99562.03
2023-03-29T05:51:38.774Z,99555.53
2023-03-29T05:54:05.886Z,99558.44
2023-03-29T05:56:34.057Z,99557.59
2023-03-29T05:59:00.881Z,99552.03
2023-03-29T06:01:27.769Z,99544.38
2023-03-29T06:03:54.973Z,99545.66
2023-03-29T06:06:22.104Z,99537.25
2023-03-29T06:08:49.002Z,99530.66
2023-03-29T06:11:19.452Z,99529.47
2023-03-29T06:13:47.691Z,99525.84
2023-03-29T06:16:14.516Z,99529.19
2023-03-29T06:18:41.575Z,99528.44
2023-03-29T06:21:08.669Z,99521.41
2023-03-29T06:23:35.838Z,99531.22
2023-03-29T06:26:02.749Z,99531.72
2023-03-29T06:28:29.635Z,99517.44
2023-03-29T06:30:58.321Z,99523.84
2023-03-29T06:33:25.392Z,99519.94
2023-03-29T06:35:52.436Z,99517.66
2023-03-29T06:38:25.293Z,99525.28
2023-03-29T06:40:52.357Z,99524.22
2023-03-29T06:43:19.063Z,99523.00
2023-03-29T06:45:46.294Z,99527.56
2023-03-29T06:48:17.787Z,99510.63
2023-03-29T06:50:44.443Z,99522.41
2023-03-29T06:53:11.106Z,99518.84
2023-03-29T06:55:37.887Z,99519.09
2023-03-29T06:58:04.616Z,99509.28
2023-03-29T07:00:31.512Z,99499.25
2023-03-29T07:02:59.122Z,99504.47
2023-03-29T07:05:27.901Z,99502.81
2023-03-29T07:07:54.902Z,99494.69
2023-03-29T07:10:23.767Z,99492.56
2023-03-29T07:12:50.566Z,99497.63
2023-03-29T07:15:17.942Z,99504.22
2023-03-29T07:17:44.871Z,99516.50
2023-03-29T07:20:12.414Z,99513.44
2023-03-29T07:22:41.042Z,99512.94
2023-03-29T07:25:08.913Z,99512.34
2023-03-29T07:27:35.809Z,99518.97
2023-03-29T07:30:03.862Z,99506.69
2023-03-29T07:32:31.827Z,99513.00
2023-03-29T07:34:58.711Z,99504.34
2023-03-29T07:37:25.818Z,99496.63
2023-03-29T07:39:54.054Z,99505.78
2023-03-29T07:42:20.721Z,99494.22
2023-03-29T07:44:47.516Z,99484.81
2023-03-29T07:47:14.554Z,99493.28
2023-03-29T07:49:41.815Z,99491.75
2023-03-29T07:52:08.912Z,99496.00
2023-03-29T07:54:36.183Z,99500.06
2023-03-29T07:57:04.616Z,99493.25
2023-03-29T07:59:31.746Z,99480.16
2023-03-29T08:01:58.503Z,99478.34
2023-03-29T08:04:25.440Z,99488.41
2023-03-29T08:06:52.188Z,99496.28
2023-03-29T08:09:19.137Z,99480.34
2023-03-29T08:11:46.947Z,99484.19
2023-03-29T08:14:15.525Z,99487.34
2023-03-29T08:16:42.756Z,99476.53
2023-03-29T08:19:11.918Z,99470.09
2023-03-29T08:21:39.043Z,99462.72
2023-03-29T08:24:06.907Z,99468.59
2023-03-29T08:26:33.996Z,99460.16
2023-03-29T08:29:01.162Z,99450.84
2023-03-29T08:31:29.493Z,99464.41
2023-03-29T08:33:56.306Z,99479.81
2023-03-29T08:36:23.402Z,99466.28
2023-03-29T08:38:50.185Z,99453.63
2023-03-29T08:41:35.574Z,99455.91
2023-03-29T08:44:23.592Z,99442.03
2023-03-29T08:46:59.060Z,99438.09
2023-03-29T08:49:27.059Z,99436.22
2023-03-29T08:51:58.663Z,99435.78
2023-03-29T08:54:28.033Z,99405.00
2023-03-29T08:57:01.638Z,99395.94
2023-03-29T08:59:31.768Z,99394.03
2023-03-29T09:02:10.010Z,99405.84
2023-03-29T09:04:41.252Z,99399.50
2023-03-29T09:07:10.139Z,99387.34
2023-03-29T09:09:37.883Z,99389.31
2023-03-29T09:12:17.624Z,99379.16
2023-03-29T09:14:58.879Z,99367.16
2023-03-29T09:17:49.720Z,99368.66
2023-03-29T09:20:27.185Z,99365.19
2023-03-29T09:23:02.671Z,99362.56
2023-03-29T09:25:50.975Z,99355.16
2023-03-29T09:28:27.950Z,99360.91
2023-03-29T09:31:00.215Z,99369.50
2023-03-29T09:33:37.422Z,99354.84
2023-03-29T09:36:10.572Z,99352.44
2023-03-29T09:38:42.038Z,99337.53
2023-03-29T09:41:19.891Z,99342.50
2023-03-29T09:43:49.804Z,99351.50
2023-03-29T09:46:22.763Z,99344.66
2023-03-29T09:48:51.793Z,99355.34
2023-03-29T09:51:22.964Z,99350.88
2023-03-29T09:53:50.133Z,99339.78
2023-03-29T09:56:17.529Z,99353.50
2023-03-29T09:58:45.618Z,99342.38
2023-03-29T10:01:15.270Z,99347.94
2023-03-29T10:03:43.146Z,99345.19
2023-03-29T10:06:12.435Z,99331.06
2023-03-29T10:08:44.784Z,99321.69
2023-03-29T10:11:14.839Z,99325.53
2023-03-29T10:13:45.936Z,99323.06
2023-03-29T10:16:20.107Z,99313.00
2023-03-29T10:18:47.024Z,99303.34
2023-03-29T10:21:16.535Z,99298.00
2023-03-29T10:23:43.999Z,99305.41
2023-03-29T10:26:20.962Z,99313.88
2023-03-29T10:28:48.028Z,99286.91
2023-03-29T10:31:18.678Z,99293.16
2023-03-29T10:33:52.888Z,99296.84
2023-03-29T10:36:22.265Z,99297.75
2023-03-29T10:38:50.815Z,99296.22
2023-03-29T10:41:19.981Z,99294.94
2023-03-29T10:43:48.435Z,99300.06
2023-03-29T10:46:21.868Z,99295.00
2023-03-29T10:48:50.595Z,99286.91
2023-03-29T10:51:18.628Z,99282.09
2023-03-29T10:53:47.270Z,99278.22
2023-03-29T10:56:32.487Z,99272.41
2023-03-29T10:59:13.843Z,99269.88
2023-03-29T11:01:52.063Z,99261.59
2023-03-29T11:04:27.551Z,99263.34
2023-03-29T11:07:09.786Z,99259.50
2023-03-29T11:09:49.408Z,99250.69
2023-03-29T11:12:23.119Z,99249.59
2023-03-29T11:15:03.526Z,99244.41
2023-03-29T11:17:48.560Z,99240.00
2023-03-29T11:20:24.599Z,99240.75
2023-03-29T11:23:00.241Z,99232.63
2023-03-29T11:25:49.623Z,99239.88
2023-03-29T11:28:23.866Z,99241.13
2023-03-29T11:31:04.030Z,99240.44
2023-03-29T11:33:46.993Z,99235.25
2023-03-29T11:36:20.326Z,99222.03
2023-03-29T11:38:58.218Z,99217.25
2023-03-29T11:41:30.596Z,99214.38
2023-03-29T11:44:02.614Z,99220.97
2023-03-29T11:46:36.553Z,99210.38
2023-03-29T11:49:11.061Z,99204.94
2023-03-29T11:51:43.299Z,99201.25
2023-03-29T11:54:18.498Z,99191.84
2023-03-29T11:59:22.986Z,99194.78
2023-03-29T12:01:55.380Z,99194.56
2023-03-29T12:04:29.178Z,99193.47
2023-03-29T12:07:07.170Z,99188.28
2023-03-29T12:09:39.113Z,99197.22
2023-03-29T12:12:14.074Z,99199.13
2023-03-29T12:15:00.746Z,99189.50
2023-03-29T12:17:33.320Z,99179.44
2023-03-29T12:20:06.586Z,99175.31
2023-03-29T12:22:34.129Z,99166.22
2023-03-29T12:25:05.004Z,99164.00
2023-03-29T12:27:39.357Z,99152.72
2023-03-29T12:30:23.747Z,99144.19
2023-03-29T12:33:09.035Z,99141.59
2023-03-29T12:35:46.465Z,99137.25
2023-03-29T12:38:19.631Z,99118.72
2023-03-29T12:40:49.713Z,99124.59
2023-03-29T12:43:24.632Z,99124.03
2023-03-29T12:45:56.247Z,99126.56
2023-03-29T12:48:25.925Z,99135.09
2023-03-29T12:50:54.392Z,99140.91
2023-03-29T12:53:24.514Z,99128.47
2023-03-29T12:56:06.801Z,99139.22
2023-03-29T12:59:04.818Z,99145.78
2023-03-29T13:01:34.093Z,99147.19
2023-03-29T13:04:19.762Z,99129.88
2023-03-29T13:06:56.876Z,99132.91
2023-03-29T13:09:25.850Z,99126.78
2023-03-29T13:11:54.653Z,99131.28
2023-03-29T13:14:27.990Z,99117.41
2023-03-29T13:17:15.608Z,99112.25
2023-03-29T13:20:11.501Z,99131.56
2023-03-29T13:22:50.578Z,99129.56
2023-03-29T13:25:35.140Z,99120.16
2023-03-29T13:28:08.951Z,99109.13
2023-03-29T13:30:50.211Z,99092.53
2023-03-29T13:33:55.571Z,99094.53
2023-03-29T13:36:34.243Z,99089.84
2023-03-29T13:39:03.913Z,99075.22
2023-03-29T13:41:43.444Z,99082.97
2023-03-29T13:44:24.809Z,99070.00
2023-03-29T13:47:04.346Z,99050.13
2023-03-29T13:49:33.562Z,99039.38
2023-03-29T13:52:13.700Z,99027.22
2023-03-29T13:54:44.536Z,99013.44
2023-03-29T13:57:16.785Z,99015.41
2023-03-29T13:59:52.470Z,99014.84
2023-03-29T14:02:32.593Z,99005.75
2023-03-29T14:05:01.731Z,99001.63
2023-03-29T14:07:33.655Z,99007.03
2023-03-29T14:10:01.444Z,99009.75
2023-03-29T14:12:38.854Z,99006.16
2023-03-29T14:15:08.338Z,99003.44
2023-03-29T14:17:37.626Z,98990.41
2023-03-29T14:20:07.043Z,98997.66
2023-03-29T14:22:34.090Z,98998.66
2023-03-29T14:25:06.136Z,98995.91
2023-03-29T14:27:36.240Z,98993.44
2023-03-29T14:30:18.997Z,98986.94
2023-03-29T14:32:48.777Z,98988.63
2023-03-29T14:35:15.800Z,98985.91
2023-03-29T14:37:43.178Z,98980.25
2023-03-29T14:40:17.008Z,98982.25
2023-03-29T14:42:43.753Z,98961.59
2023-03-29T14:45:13.703Z,98961.06
2023-03-29T14:47:41.485Z,98956.38
2023-03-29T14:50:18.516Z,98953.03
2023-03-29T14:52:47.909Z,98940.56
2023-03-29T14:55:16.814Z,98943.38
2023-03-29T14:57:43.862Z,98941.50
2023-03-29T15:00:24.839Z,98953.34
2023-03-29T15:02:55.764Z,98943.69
2023-03-29T15:05:32.738Z,98938.69
2023-03-29T15:08:01.391Z,98937.63
2023-03-29T15:10:31.698Z,98941.78
2023-03-29T15:12:58.945Z,98933.50
2023-03-29T15:15:25.897Z,98935.13
2023-03-29T15:17:52.961Z,98919.16
2023-03-29T15:20:24.721Z,98925.81
2023-03-29T15:23:01.478Z,98922.50
2023-03-29T15:25:33.331Z,98917.22
2023-03-29T15:28:01.675Z,98906.72
2023-03-29T15:30:33.361Z,98909.22
2023-03-29T15:33:20.191Z,98910.53
2023-03-29T15:35:50.600Z,98911.66
2023-03-29T15:38:23.370Z,98906.47
2023-03-29T15:40:54.571Z,98910.31
2023-03-29T15:43:21.730Z,98915.81
2023-03-29T15:45:48.527Z,98905.06
2023-03-29T15:48:18.289Z,98899.28
2023-03-29T15:50:45.430Z,98900.34
2023-03-29T15:53:15.556Z,98890.47
2023-03-29T15:55:47.561Z,98884.72
2023-03-29T15:58:15.834Z,98873.97
2023-03-29T16:00:46.655Z,98864.34
2023-03-29T16:03:14.915Z,98863.22
2023-03-29T16:05:42.841Z,98867.66
2023-03-29T16:08:11.167Z,98853.31
2023-03-29T16:10:38.053Z,98854.41
2023-03-29T16:13:06.764Z,98866.00
2023-03-29T16:15:34.426Z,98875.63
2023-03-29T16:18:01.328Z,98873.16
2023-03-29T16:20:28.239Z,98850.28
2023-03-29T16:22:56.022Z,98842.28
2023-03-29T16:25:23.477Z,98845.06
2023-03-29T16:27:51.548Z,98846.69
2023-03-29T16:30:20.454Z,98844.22
2023-03-29T16:32:47.126Z,98835.69
2023-03-29T16:35:26.955Z,98837.31
2023-03-29T16:37:53.785Z,98830.16
2023-03-29T16:40:20.888Z,98824.91
2023-03-29T16:42:48.117Z,98819.97
2023-03-29T16:45:15.819Z,98813.03
2023-03-29T16:47:44.805Z,98816.66
2023-03-29T16:50:12.640Z,98817.19
2023-03-29T16:52:40.709Z,98822.31
2023-03-29T16:55:08.977Z,98822.84
2023-03-29T16:57:36.110Z,98816.50
2023-03-29T17:00:04.099Z,98818.44
2023-03-29T17:02:30.960Z,98815.63
2023-03-29T17:04:59.288Z,98810.94
2023-03-29T17:07:26.004Z,98820.09
2023-03-29T17:09:53.013Z,98806.84
2023-03-29T17:12:20.099Z,98813.75
2023-03-29T17:14:49.481Z,98810.16
2023-03-29T17:17:16.284Z,98796.84
2023-03-29T17:19:43.278Z,98796.41
2023-03-29T17:22:11.712Z,98809.63
2023-03-29T17:24:38.759Z,98805.47
2023-03-29T17:27:05.648Z,98807.72
2023-03-29T17:29:32.819Z,98805.47
2023-03-29T17:31:59.878Z,98799.09
2023-03-29T17:34:26.579Z,98793.03
2023-03-29T17:36:53.332Z,98788.69
2023-03-29T17:39:21.558Z,98785.94
2023-03-29T17:41:48.335Z,98776.59
2023-03-29T17:44:15.252Z,98781.00
2023-03-29T17:46:41.957Z,98766.09
2023-03-29T17:49:08.761Z,98765.00
2023-03-29T17:51:35.642Z,98766.66
2023-03-29T17:54:02.808Z,98768.06
2023-03-29T17:56:31.433Z,98771.97
2023-03-29T17:58:58.336Z,98769.75
2023-03-29T18:01:25.658Z,98765.13
2023-03-29T18:03:52.553Z,98762.09
2023-03-29T18:06:19.455Z,98760.19
2023-03-29T18:08:47.072Z,98752.44
2023-03-29T18:11:16.003Z,98756.84
2023-03-29T18:13:44.619Z,98767.88
2023-03-29T18:16:11.927Z,98766.50
2023-03-29T18:18:39.063Z,98775.06
2023-03-29T18:21:06.413Z,98770.63
2023-03-29T18:23:33.357Z,98767.59
2023-03-29T18:26:00.810Z,98763.75
2023-03-29T18:28:27.961Z,98757.41
2023-03-29T18:30:56.339Z,98761.81
2023-03-29T18:33:23.902Z,98756.59
2023-03-29T18:35:51.157Z,98753.28
2023-03-29T18:38:19.255Z,98754.97
2023-03-29T18:40:46.886Z,98742.59
2023-03-29T18:43:14.247Z,98741.47
2023-03-29T18:45:41.633Z,98741.22
2023-03-29T18:48:10.176Z,98742.84
2023-03-29T18:50:37.715Z,98750.28
2023-03-29T18:53:04.977Z,98742.59
2023-03-29T18:55:32.129Z,98735.69
2023-03-29T18:57:58.935Z,98739.28
2023-03-29T19:00:26.149Z,98742.59
2023-03-29T19:02:53.167Z,98740.94
2023-03-29T19:05:21.630Z,98739.28
2023-03-29T19:07:48.448Z,98739.84
2023-03-29T19:10:15.204Z,98741.50
2023-03-29T19:12:42.036Z,98749.75
2023-03-29T19:15:11.206Z,98746.72
2023-03-29T19:17:38.104Z,98743.69
2023-03-29T19:20:06.176Z,98740.94
2023-03-29T19:22:34.610Z,98742.59
2023-03-29T19:25:01.366Z,98733.78
2023-03-29T19:27:28.775Z,98736.84
2023-03-29T19:29:55.482Z,98735.72
2023-03-29T19:32:22.187Z,98712.03
2023-03-29T19:34:49.002Z,98714.25
2023-03-29T19:37:15.952Z,98713.13
2023-03-29T19:39:44.207Z,98707.06
2023-03-29T19:42:11.445Z,98706.81
2023-03-29T19:44:38.237Z,98707.38
2023-03-29T19:47:05.392Z,98713.41
2023-03-29T19:49:32.214Z,98704.63
2023-03-29T19:51:58.986Z,98701.59
2023-03-29T19:54:26.337Z,98695.19
2023-03-29T19:56:54.730Z,98693.28
2023-03-29T19:59:21.510Z,98697.97
2023-03-29T20:01:48.399Z,98695.22
2023-03-29T20:04:15.269Z,98697.13
2023-03-29T20:06:42.199Z,98693.28
2023-03-29T20:09:08.977Z,98680.06
2023-03-29T20:11:36.104Z,98691.88
2023-03-29T20:14:05.136Z,98680.31
2023-03-29T20:16:32.328Z,98679.47
2023-03-29T20:18:59.213Z,98681.94
2023-03-29T20:21:25.888Z,98677.25
2023-03-29T20:23:52.678Z,98686.88
2023-03-29T20:26:19.783Z,98671.16
2023-03-29T20:28:46.861Z,98668.56
2023-03-29T20:31:15.037Z,98667.47
2023-03-29T20:33:41.878Z,98662.81
2023-03-29T20:36:09.211Z,98659.19
2023-03-29T20:38:36.102Z,98663.63
2023-03-29T20:41:04.027Z,98660.84
2023-03-29T20:43:31.559Z,98647.59
2023-03-29T20:45:58.658Z,98644.31
2023-03-29T20:48:27.188Z,98649.22
2023-03-29T20:50:53.988Z,98645.97
2023-03-29T20:53:20.870Z,98652.53
2023-03-29T20:55:48.142Z,98652.53
2023-03-29T20:58:15.316Z,98645.69
2023-03-29T21:00:42.051Z,98639.34
2023-03-29T21:03:09.055Z,98639.00
2023-03-29T21:05:37.591Z,98631.28
2023-03-29T21:08:04.687Z,98627.50
2023-03-29T21:10:31.831Z,98633.22
2023-03-29T21:12:58.970Z,98619.38
2023-03-29T21:15:26.428Z,98609.63
2023-03-29T21:17:53.561Z,98611.53
2023-03-29T21:20:20.552Z,98601.09
2023-03-29T21:22:49.598Z,98604.16
2023-03-29T21:25:16.712Z,98600.88
2023-03-29T21:27:43.551Z,98598.69
2023-03-29T21:30:11.131Z,98585.97
2023-03-29T21:32:39.730Z,98594.28
2023-03-29T21:35:07.681Z,98585.75
2023-03-29T21:37:34.666Z,98578.88
2023-03-29T21:40:03.894Z,98578.25
2023-03-29T21:42:30.744Z,98568.94
2023-03-29T21:44:57.444Z,98573.06
2023-03-29T21:47:24.769Z,98574.75
2023-03-29T21:49:51.602Z,98572.84
2023-03-29T21:52:18.722Z,98570.09
2023-03-29T21:54:45.550Z,98572.00
2023-03-29T21:57:14.289Z,98562.66
2023-03-29T21:59:40.990Z,98572.56
2023-03-29T22:02:08.163Z,98568.72
2023-03-29T22:05:12.636Z,98573.97
2023-03-29T22:07:39.475Z,98580.56
2023-03-29T22:10:07.212Z,98578.31
2023-03-29T22:12:35.702Z,98574.78
2023-03-29T22:15:02.876Z,98569.81
2023-03-29T22:17:30.038Z,98558.72
2023-03-29T22:19:57.160Z,98567.84
2023-03-29T22:22:25.481Z,98565.72
2023-03-29T22:24:54.764Z,98549.13
2023-03-29T22:27:22.146Z,98554.09
2023-03-29T22:29:50.834Z,98544.44
2023-03-29T22:32:18.059Z,98540.97
2023-03-29T22:34:45.325Z,98535.47
2023-03-29T22:37:12.128Z,98532.75
2023-03-29T22:39:38.967Z,98535.72
2023-03-29T22:42:05.934Z,98533.22
2023-03-29T22:44:32.758Z,98532.66
2023-03-29T22:47:01.247Z,98531.56
2023-03-29T22:49:28.372Z,98531.06
2023-03-29T22:51:55.162Z,98529.09
2023-03-29T22:54:22.035Z,98524.88
2023-03-29T22:56:48.936Z,98523.25
2023-03-29T22:59:16.127Z,98524.97
2023-03-29T23:01:43.033Z,98511.59
2023-03-29T23:04:11.800Z,98510.34
2023-03-29T23:06:38.572Z,98522.66
2023-03-29T23:09:05.378Z,98524.03
2023-03-29T23:11:32.099Z,98522.38
2023-03-29T23:13:59.006Z,98517.09
2023-03-29T23:16:26.594Z,98514.03
2023-03-29T23:18:53.508Z,98513.13
2023-03-29T23:21:22.085Z,98515.19
2023-03-29T23:23:48.892Z,98513.44
2023-03-29T23:26:15.914Z,98517.59
2023-03-29T23:28:42.895Z,98520.53
2023-03-29T23:31:11.926Z,98524.63
2023-03-29T23:33:41.027Z,98524.47
2023-03-29T23:36:10.236Z,98524.97
2023-03-29T23:38:39.272Z,98515.13
2023-03-29T23:41:07.803Z,98518.53
2023-03-29T23:43:36.804Z,98525.94
2023-03-29T23:46:06.298Z,98517.75
2023-03-29T23:49:10.762Z,98522.09
2023-03-29T23:51:37.574Z,98515.16
2023-03-29T23:54:06.247Z,98511.97
2023-03-29T23:56:33.137Z,98516.34
2023-03-29T23:59:00.221Z,98517.84
